createdAt,value
2023-10-04T00:01:41.442Z,6.43
2023-10-04T00:05:44.592Z,6.18
2023-10-04T00:09:47.430Z,6.04
2023-10-04T00:13:52.646Z,5.98
2023-10-04T00:17:56.143Z,6.29
2023-10-04T00:21:59.554Z,5.30
2023-10-04T00:26:02.360Z,6.07
2023-10-04T00:30:08.438Z,6.36
2023-10-04T00:34:11.182Z,5.78
2023-10-04T00:38:16.418Z,5.87
2023-10-04T00:42:21.640Z,6.19
2023-10-04T00:46:26.346Z,5.82
2023-10-04T00:50:33.014Z,5.59
2023-10-04T00:54:36.465Z,5.51
2023-10-04T00:58:39.828Z,5.74
2023-10-04T01:02:44.098Z,5.89
2023-10-04T01:06:47.039Z,5.88
2023-10-04T01:10:51.906Z,5.90
2023-10-04T01:14:55.101Z,5.56
2023-10-04T01:19:00.206Z,5.70
2023-10-04T01:23:07.171Z,5.50
2023-10-04T01:27:10.151Z,5.45
2023-10-04T01:31:13.060Z,5.88
2023-10-04T01:35:16.111Z,5.51
2023-10-04T01:39:21.798Z,5.43
2023-10-04T01:43:26.430Z,5.48
2023-10-04T01:47:31.741Z,5.38
2023-10-04T01:51:34.601Z,5.40
2023-10-04T01:55:38.859Z,5.55
2023-10-04T01:59:41.639Z,5.20
2023-10-04T02:03:44.456Z,5.40
2023-10-04T02:07:47.341Z,5.25
2023-10-04T02:11:52.135Z,5.44
2023-10-04T02:15:56.116Z,5.01
2023-10-04T02:19:58.810Z,5.14
2023-10-04T02:24:03.524Z,5.32
2023-10-04T02:28:12.277Z,5.04
2023-10-04T02:32:15.044Z,5.19
2023-10-04T02:36:17.922Z,5.39
2023-10-04T02:40:22.696Z,4.95
2023-10-04T02:44:27.012Z,5.18
2023-10-04T02:48:31.962Z,4.89
2023-10-04T02:52:36.936Z,4.87
2023-10-04T02:56:47.053Z,4.90
2023-10-04T03:00:52.052Z,4.95
2023-10-04T03:04:55.097Z,4.73
2023-10-04T03:08:58.414Z,4.90
2023-10-04T03:13:02.352Z,4.88
2023-10-04T03:17:10.310Z,4.80
2023-10-04T03:21:21.472Z,4.74
2023-10-04T03:25:27.541Z,4.45
2023-10-04T03:29:30.996Z,4.62
2023-10-04T03:33:36.650Z,4.88
2023-10-04T03:37:45.338Z,4.95
2023-10-04T03:41:48.763Z,4.58
2023-10-04T03:45:52.424Z,4.67
2023-10-04T03:49:56.587Z,4.71
2023-10-04T03:53:59.418Z,4.56
2023-10-04T03:58:02.218Z,4.75
2023-10-04T04:02:06.950Z,4.35
2023-10-04T04:06:13.076Z,4.68
2023-10-04T04:10:18.233Z,4.78
2023-10-04T04:14:21.238Z,4.68
2023-10-04T04:18:24.953Z,4.49
2023-10-04T04:22:29.727Z,4.56
2023-10-04T04:26:34.824Z,4.62
2023-10-04T04:30:39.174Z,4.58
2023-10-04T04:34:43.200Z,4.67
2023-10-04T04:38:48.788Z,4.76
2023-10-04T04:42:51.769Z,4.96
2023-10-04T04:46:54.906Z,4.51
2023-10-04T04:50:59.261Z,4.69
2023-10-04T04:55:03.900Z,4.81
2023-10-04T04:59:09.254Z,4.76
2023-10-04T05:03:13.048Z,4.67
2023-10-04T05:07:16.135Z,4.66
2023-10-04T05:11:20.562Z,4.65
2023-10-04T05:15:33.484Z,4.62
2023-10-04T05:19:36.482Z,4.52
2023-10-04T05:23:40.122Z,4.53
2023-10-04T05:27:44.828Z,4.67
2023-10-04T05:31:48.875Z,4.57
2023-10-04T05:35:54.627Z,4.70
2023-10-04T05:39:57.411Z,4.66
2023-10-04T05:44:01.769Z,4.58
2023-10-04T05:48:06.249Z,4.57
2023-10-04T05:52:09.401Z,4.58
2023-10-04T05:56:12.100Z,4.57
2023-10-04T06:00:25.368Z,4.71
2023-10-04T06:04:28.518Z,4.78
2023-10-04T06:08:31.307Z,4.95
2023-10-04T06:12:34.955Z,4.97
2023-10-04T06:16:39.692Z,5.11
2023-10-04T06:20:43.332Z,5.01
2023-10-04T06:24:46.973Z,5.18
2023-10-04T06:28:51.476Z,5.15
2023-10-04T06:32:56.495Z,5.26
2023-10-04T06:36:59.612Z,5.25
2023-10-04T06:41:04.416Z,5.38
2023-10-04T06:45:10.655Z,5.43
2023-10-04T06:49:15.527Z,5.50
2023-10-04T06:53:18.373Z,5.56
2023-10-04T06:57:21.904Z,5.71
2023-10-04T07:01:25.304Z,5.83
2023-10-04T07:05:33.862Z,5.77
2023-10-04T07:09:36.677Z,6.10
2023-10-04T07:13:40.419Z,6.38
2023-10-04T07:17:44.218Z,6.33
2023-10-04T07:21:48.588Z,6.59
2023-10-04T07:25:51.666Z,6.90
2023-10-04T07:29:55.313Z,6.50
2023-10-04T07:33:58.436Z,6.98
2023-10-04T07:38:05.362Z,7.17
2023-10-04T07:42:08.793Z,7.70
2023-10-04T07:46:11.790Z,7.56
2023-10-04T07:50:16.515Z,7.77
2023-10-04T07:54:20.730Z,7.61
2023-10-04T07:58:23.526Z,8.23
2023-10-04T08:02:26.306Z,8.35
2023-10-04T08:06:29.134Z,8.69
2023-10-04T08:10:35.188Z,9.09
2023-10-04T08:14:38.237Z,9.35
2023-10-04T08:18:41.083Z,9.40
2023-10-04T08:22:44.557Z,9.57
2023-10-04T08:26:50.076Z,9.74
2023-10-04T08:30:53.356Z,9.95
2023-10-04T08:34:56.646Z,10.02
2023-10-04T08:39:00.898Z,10.10
2023-10-04T08:43:05.500Z,10.26
2023-10-04T08:47:09.737Z,10.32
2023-10-04T08:51:18.284Z,9.91
2023-10-04T08:55:23.344Z,10.18
2023-10-04T08:59:29.138Z,10.25
2023-10-04T09:03:32.393Z,10.85
2023-10-04T09:07:35.821Z,10.94
2023-10-04T09:11:38.714Z,10.97
2023-10-04T09:15:43.636Z,11.58
2023-10-04T09:19:48.320Z,12.22
2023-10-04T09:24:06.782Z,12.49
2023-10-04T09:28:10.757Z,12.59
2023-10-04T09:32:15.038Z,12.31
2023-10-04T09:36:33.447Z,12.64
2023-10-04T09:40:36.295Z,12.43
2023-10-04T09:44:39.111Z,12.78
2023-10-04T09:48:46.346Z,12.62
2023-10-04T09:52:49.582Z,12.39
2023-10-04T09:56:54.697Z,12.18
2023-10-04T10:00:57.696Z,12.80
2023-10-04T10:05:02.478Z,12.93
2023-10-04T10:09:12.628Z,12.96
2023-10-04T10:13:16.898Z,13.47
2023-10-04T10:17:19.821Z,13.71
2023-10-04T10:21:23.959Z,14.04
2023-10-04T10:25:27.037Z,14.80
2023-10-04T10:29:30.662Z,14.40
2023-10-04T10:33:33.658Z,14.79
2023-10-04T10:37:39.765Z,15.60
2023-10-04T10:42:05.018Z,15.46
2023-10-04T10:46:29.959Z,15.66
2023-10-04T10:50:36.965Z,16.01
2023-10-04T10:54:41.375Z,15.56
2023-10-04T10:58:51.014Z,15.52
2023-10-04T11:02:55.608Z,15.40
2023-10-04T11:06:58.755Z,16.36
2023-10-04T11:11:02.866Z,16.49
2023-10-04T11:15:07.770Z,16.52
2023-10-04T11:19:13.726Z,16.72
2023-10-04T11:23:16.882Z,16.66
2023-10-04T11:27:23.998Z,16.32
2023-10-04T11:31:33.029Z,15.89
2023-10-04T11:35:42.183Z,15.50
2023-10-04T11:39:46.026Z,15.06
2023-10-04T11:43:52.838Z,14.64
2023-10-04T11:48:00.038Z,15.20
2023-10-04T11:52:05.225Z,15.39
2023-10-04T11:56:10.264Z,15.27
2023-10-04T12:00:30.391Z,15.52
2023-10-04T12:04:34.322Z,16.01
2023-10-04T12:08:41.302Z,16.44
2023-10-04T12:12:44.638Z,16.24
2023-10-04T12:16:49.144Z,16.33
2023-10-04T12:20:51.920Z,16.30
2023-10-04T12:24:55.488Z,16.34
2023-10-04T12:28:59.218Z,16.58
2023-10-04T12:33:03.982Z,16.86
2023-10-04T12:37:08.322Z,16.51
2023-10-04T12:41:11.497Z,16.32
2023-10-04T12:45:16.730Z,16.49
2023-10-04T12:49:21.142Z,16.71
2023-10-04T12:53:23.850Z,16.84
2023-10-04T12:57:28.965Z,16.78
2023-10-04T13:01:33.237Z,16.98
2023-10-04T13:05:39.054Z,16.73
2023-10-04T13:09:57.865Z,16.83
2023-10-04T13:14:02.224Z,16.50
2023-10-04T13:18:09.192Z,15.77
2023-10-04T13:22:13.521Z,15.72
2023-10-04T13:26:16.722Z,15.60
2023-10-04T13:30:19.680Z,15.63
2023-10-04T13:34:22.549Z,15.73
2023-10-04T13:38:26.747Z,15.92
2023-10-04T13:42:29.836Z,15.86
2023-10-04T13:46:33.021Z,16.18
2023-10-04T13:50:35.829Z,16.24
2023-10-04T13:54:41.901Z,16.09
2023-10-04T13:58:44.633Z,15.71
2023-10-04T14:02:47.453Z,15.91
2023-10-04T14:06:50.244Z,15.92
2023-10-04T14:10:54.379Z,15.99
2023-10-04T14:14:57.067Z,15.83
2023-10-04T14:19:00.239Z,15.79
2023-10-04T14:23:08.754Z,15.72
2023-10-04T14:27:12.798Z,15.75
2023-10-04T14:31:15.709Z,15.58
2023-10-04T14:35:18.788Z,15.71
2023-10-04T14:39:24.743Z,15.58
2023-10-04T14:43:29.892Z,15.56
2023-10-04T14:47:33.180Z,15.22
2023-10-04T14:51:36.873Z,15.39
2023-10-04T14:55:39.583Z,15.32
2023-10-04T14:59:44.113Z,15.16
2023-10-04T15:03:48.852Z,15.17
2023-10-04T15:07:52.729Z,15.07
2023-10-04T15:11:55.484Z,15.08
2023-10-04T15:16:10.146Z,15.07
2023-10-04T15:20:17.537Z,15.12
2023-10-04T15:24:23.428Z,15.20
2023-10-04T15:28:27.764Z,15.18
2023-10-04T15:32:33.543Z,15.20
2023-10-04T15:36:36.342Z,15.19
2023-10-04T15:40:40.861Z,15.16
2023-10-04T15:44:43.758Z,15.13
2023-10-04T15:48:48.060Z,15.20
2023-10-04T15:52:51.027Z,15.03
2023-10-04T15:56:54.002Z,14.31
2023-10-04T16:00:57.748Z,14.40
2023-10-04T16:05:02.192Z,14.35
2023-10-04T16:09:07.937Z,14.01
2023-10-04T16:13:10.907Z,14.06
2023-10-04T16:17:13.915Z,14.19
2023-10-04T16:21:22.285Z,13.86
2023-10-04T16:25:25.144Z,14.07
2023-10-04T16:29:27.885Z,14.08
2023-10-04T16:33:30.755Z,13.78
2023-10-04T16:37:34.908Z,13.49
2023-10-04T16:41:39.659Z,13.62
2023-10-04T16:45:43.773Z,13.58
2023-10-04T16:49:46.716Z,13.22
2023-10-04T16:53:50.864Z,13.32
2023-10-04T16:57:53.691Z,13.37
2023-10-04T17:01:56.750Z,13.09
2023-10-04T17:05:59.582Z,12.50
2023-10-04T17:10:04.138Z,12.43
2023-10-04T17:14:07.104Z,12.51
2023-10-04T17:18:09.894Z,11.64
2023-10-04T17:22:13.494Z,11.19
2023-10-04T17:26:17.945Z,11.49
2023-10-04T17:30:21.542Z,11.52
2023-10-04T17:34:24.431Z,10.92
2023-10-04T17:38:27.528Z,10.91
2023-10-04T17:42:32.200Z,10.92
2023-10-04T17:46:35.788Z,10.96
2023-10-04T17:50:40.029Z,10.32
2023-10-04T17:54:42.809Z,10.68
2023-10-04T17:58:47.003Z,10.48
2023-10-04T18:02:50.761Z,10.50
2023-10-04T18:06:53.797Z,10.39
2023-10-04T18:10:56.699Z,9.67
2023-10-04T18:15:00.918Z,9.91
2023-10-04T18:19:04.418Z,9.76
2023-10-04T18:23:07.190Z,10.18
2023-10-04T18:27:09.969Z,9.55
2023-10-04T18:31:15.357Z,8.96
2023-10-04T18:35:18.965Z,9.30
2023-10-04T18:39:22.155Z,9.65
2023-10-04T18:43:24.999Z,9.85
2023-10-04T18:47:29.352Z,9.26
2023-10-04T18:51:32.982Z,9.16
2023-10-04T18:55:42.035Z,9.07
2023-10-04T18:59:45.020Z,8.92
2023-10-04T19:03:49.793Z,8.63
2023-10-04T19:07:52.726Z,8.93
2023-10-04T19:11:56.611Z,9.05
2023-10-04T19:15:59.462Z,8.88
2023-10-04T19:20:06.050Z,8.97
2023-10-04T19:24:09.647Z,8.84
2023-10-04T19:28:16.425Z,8.22
2023-10-04T19:32:19.168Z,8.63
2023-10-04T19:36:23.749Z,8.29
2023-10-04T19:40:26.636Z,8.32
2023-10-04T19:44:31.728Z,8.43
2023-10-04T19:48:34.940Z,8.46
2023-10-04T19:52:39.083Z,8.06
2023-10-04T19:56:41.770Z,7.98
2023-10-04T20:00:45.467Z,8.20
2023-10-04T20:04:48.511Z,7.94
2023-10-04T20:08:52.897Z,8.00
2023-10-04T20:12:59.045Z,7.80
2023-10-04T20:17:01.889Z,7.88
2023-10-04T20:21:05.925Z,7.68
2023-10-04T20:25:14.543Z,7.49
2023-10-04T20:29:17.418Z,7.77
2023-10-04T20:33:21.096Z,7.51
2023-10-04T20:37:25.402Z,7.77
2023-10-04T20:41:29.839Z,7.40
2023-10-04T20:45:32.725Z,7.47
2023-10-04T20:49:35.721Z,7.67
2023-10-04T20:53:38.698Z,7.29
2023-10-04T20:57:42.915Z,7.10
2023-10-04T21:01:48.579Z,7.15
2023-10-04T21:05:52.920Z,7.11
2023-10-04T21:09:55.653Z,7.00
2023-10-04T21:13:59.903Z,7.20
2023-10-04T21:18:03.257Z,7.43
2023-10-04T21:22:06.276Z,7.13
2023-10-04T21:26:09.290Z,7.15
2023-10-04T21:30:14.067Z,6.82
2023-10-04T21:34:18.395Z,6.69
2023-10-04T21:38:27.320Z,6.58
2023-10-04T21:42:30.228Z,6.67
2023-10-04T21:46:39.376Z,7.00
2023-10-04T21:50:42.291Z,6.67
2023-10-04T21:54:45.862Z,6.71
2023-10-04T21:58:48.556Z,6.77
2023-10-04T22:02:56.790Z,6.50
2023-10-04T22:07:18.480Z,6.62
2023-10-04T22:11:24.305Z,6.85
2023-10-04T22:15:27.136Z,6.61
2023-10-04T22:19:32.472Z,6.82
2023-10-04T22:23:35.348Z,6.37
2023-10-04T22:27:40.064Z,6.65
2023-10-04T22:31:42.842Z,6.88
2023-10-04T22:35:48.057Z,6.49
2023-10-04T22:39:56.281Z,6.50
2023-10-04T22:44:01.238Z,6.23
2023-10-04T22:48:04.748Z,6.57
2023-10-04T22:52:09.049Z,6.47
2023-10-04T22:56:13.872Z,6.13
2023-10-04T23:00:17.433Z,6.32
2023-10-04T23:04:20.395Z,6.23
2023-10-04T23:08:26.089Z,6.48
2023-10-04T23:12:29.991Z,6.35
2023-10-04T23:16:33.865Z,6.10
2023-10-04T23:20:39.136Z,6.02
2023-10-04T23:24:45.408Z,6.12
2023-10-04T23:28:48.286Z,6.34
2023-10-04T23:32:51.807Z,6.36
2023-10-04T23:36:54.735Z,6.06
2023-10-04T23:41:06.772Z,5.85
2023-10-04T23:45:18.406Z,5.88
2023-10-04T23:49:22.449Z,6.01
2023-10-04T23:53:48.395Z,6.36
2023-10-04T23:57:52.724Z,6.01
